sensor_id;sensor_type;location;lat;lon;timestamp;pressure;altitude;pressure_sealevel;temperature;humidity
37778;BME280;23615;51.506;7.678;2023-05-18T00:01:18;101080.59;;;7.22;83.48
37778;BME280;23615;51.506;7.678;2023-05-18T00:03:43;101088.94;;;7.19;83.35
37778;BME280;23615;51.506;7.678;2023-05-18T00:06:09;101083.13;;;7.16;83.26
37778;BME280;23615;51.506;7.678;2023-05-18T00:08:36;101086.13;;;7.12;83.22
37778;BME280;23615;51.506;7.678;2023-05-18T00:11:03;101084.66;;;7.10;83.75
37778;BME280;23615;51.506;7.678;2023-05-18T00:13:29;101091.81;;;7.09;83.60
37778;BME280;23615;51.506;7.678;2023-05-18T00:15:55;101090.78;;;7.10;83.48
37778;BME280;23615;51.506;7.678;2023-05-18T00:18:21;101097.44;;;7.06;83.95
37778;BME280;23615;51.506;7.678;2023-05-18T00:20:52;101098.09;;;7.08;83.58
37778;BME280;23615;51.506;7.678;2023-05-18T00:23:31;101094.97;;;7.05;83.37
37778;BME280;23615;51.506;7.678;2023-05-18T00:26:01;101086.00;;;7.06;83.96
37778;BME280;23615;51.506;7.678;2023-05-18T00:28:27;101097.63;;;7.05;84.28
37778;BME280;23615;51.506;7.678;2023-05-18T00:30:53;101092.66;;;7.02;83.88
37778;BME280;23615;51.506;7.678;2023-05-18T00:33:19;101083.88;;;7.01;84.09
37778;BME280;23615;51.506;7.678;2023-05-18T00:35:44;101095.50;;;7.00;83.81
37778;BME280;23615;51.506;7.678;2023-05-18T00:38:10;101092.53;;;6.95;83.88
37778;BME280;23615;51.506;7.678;2023-05-18T00:40:36;101093.22;;;6.89;84.37
37778;BME280;23615;51.506;7.678;2023-05-18T00:43:03;101092.56;;;6.87;84.31
37778;BME280;23615;51.506;7.678;2023-05-18T00:45:28;101100.53;;;6.87;84.02
37778;BME280;23615;51.506;7.678;2023-05-18T00:47:53;101094.56;;;6.85;84.22
37778;BME280;23615;51.506;7.678;2023-05-18T00:50:18;101087.78;;;6.83;84.46
37778;BME280;23615;51.506;7.678;2023-05-18T00:52:45;101088.97;;;6.80;84.44
37778;BME280;23615;51.506;7.678;2023-05-18T00:55:11;101086.81;;;6.75;84.64
37778;BME280;23615;51.506;7.678;2023-05-18T00:57:37;101094.13;;;6.73;84.35
37778;BME280;23615;51.506;7.678;2023-05-18T01:00:06;101101.06;;;6.74;84.68
37778;BME280;23615;51.506;7.678;2023-05-18T01:02:35;101099.59;;;6.72;84.42
37778;BME280;23615;51.506;7.678;2023-05-18T01:05:02;101096.13;;;6.71;84.44
37778;BME280;23615;51.506;7.678;2023-05-18T01:07:28;101105.06;;;6.70;84.50
37778;BME280;23615;51.506;7.678;2023-05-18T01:09:54;101097.63;;;6.66;84.73
37778;BME280;23615;51.506;7.678;2023-05-18T01:12:26;101092.00;;;6.61;84.75
37778;BME280;23615;51.506;7.678;2023-05-18T01:15:12;101096.00;;;6.57;85.00
37778;BME280;23615;51.506;7.678;2023-05-18T01:20:58;101096.19;;;6.47;85.02
37778;BME280;23615;51.506;7.678;2023-05-18T01:23:44;101098.69;;;6.41;85.74
37778;BME280;23615;51.506;7.678;2023-05-18T01:26:22;101098.41;;;6.35;85.61
37778;BME280;23615;51.506;7.678;2023-05-18T01:28:49;101096.25;;;6.31;85.28
37778;BME280;23615;51.506;7.678;2023-05-18T01:31:15;101094.13;;;6.26;85.53
37778;BME280;23615;51.506;7.678;2023-05-18T01:33:41;101091.13;;;6.21;85.62
37778;BME280;23615;51.506;7.678;2023-05-18T01:36:06;101078.25;;;6.18;85.68
37778;BME280;23615;51.506;7.678;2023-05-18T01:38:32;101089.16;;;6.15;85.90
37778;BME280;23615;51.506;7.678;2023-05-18T01:44:07;101103.41;;;6.06;85.88
37778;BME280;23615;51.506;7.678;2023-05-18T01:49:37;101110.72;;;5.96;86.05
37778;BME280;23615;51.506;7.678;2023-05-18T01:52:08;101110.19;;;5.92;85.99
37778;BME280;23615;51.506;7.678;2023-05-18T01:54:36;101114.03;;;5.90;86.29
37778;BME280;23615;51.506;7.678;2023-05-18T01:57:05;101110.19;;;5.84;86.31
37778;BME280;23615;51.506;7.678;2023-05-18T01:59:31;101108.34;;;5.85;86.57
37778;BME280;23615;51.506;7.678;2023-05-18T02:02:00;101100.75;;;5.82;86.72
37778;BME280;23615;51.506;7.678;2023-05-18T02:04:27;101103.72;;;5.79;86.68
37778;BME280;23615;51.506;7.678;2023-05-18T02:06:53;101097.59;;;5.78;86.78
37778;BME280;23615;51.506;7.678;2023-05-18T02:09:19;101101.56;;;5.74;86.48
37778;BME280;23615;51.506;7.678;2023-05-18T02:11:46;101103.56;;;5.72;86.43
37778;BME280;23615;51.506;7.678;2023-05-18T02:14:11;101098.59;;;5.69;86.26
37778;BME280;23615;51.506;7.678;2023-05-18T02:16:36;101100.94;;;5.64;86.51
37778;BME280;23615;51.506;7.678;2023-05-18T02:19:02;101091.81;;;5.58;86.87
37778;BME280;23615;51.506;7.678;2023-05-18T02:21:27;101104.06;;;5.59;86.73
37778;BME280;23615;51.506;7.678;2023-05-18T02:23:52;101099.44;;;5.61;86.93
37778;BME280;23615;51.506;7.678;2023-05-18T02:26:18;101094.31;;;5.60;86.94
37778;BME280;23615;51.506;7.678;2023-05-18T02:28:43;101094.47;;;5.58;86.43
37778;BME280;23615;51.506;7.678;2023-05-18T02:31:10;101098.91;;;5.58;86.40
37778;BME280;23615;51.506;7.678;2023-05-18T02:33:36;101100.75;;;5.57;86.56
37778;BME280;23615;51.506;7.678;2023-05-18T02:36:09;101109.66;;;5.56;86.64
37778;BME280;23615;51.506;7.678;2023-05-18T02:38:36;101103.22;;;5.51;86.82
37778;BME280;23615;51.506;7.678;2023-05-18T02:41:02;101108.00;;;5.47;86.82
37778;BME280;23615;51.506;7.678;2023-05-18T02:43:28;101107.53;;;5.44;86.35
37778;BME280;23615;51.506;7.678;2023-05-18T02:45:53;101107.00;;;5.40;86.76
37778;BME280;23615;51.506;7.678;2023-05-18T02:48:18;101100.56;;;5.35;86.72
37778;BME280;23615;51.506;7.678;2023-05-18T02:50:43;101111.63;;;5.30;87.06
37778;BME280;23615;51.506;7.678;2023-05-18T02:53:10;101109.97;;;5.29;87.08
37778;BME280;23615;51.506;7.678;2023-05-18T02:55:36;101110.16;;;5.28;87.28
37778;BME280;23615;51.506;7.678;2023-05-18T02:58:02;101115.44;;;5.28;87.15
37778;BME280;23615;51.506;7.678;2023-05-18T03:00:27;101110.31;;;5.34;86.87
37778;BME280;23615;51.506;7.678;2023-05-18T03:02:54;101108.66;;;5.33;87.19
37778;BME280;23615;51.506;7.678;2023-05-18T03:05:22;101115.44;;;5.28;86.72
37778;BME280;23615;51.506;7.678;2023-05-18T03:07:49;101118.56;;;5.23;87.03
37778;BME280;23615;51.506;7.678;2023-05-18T03:10:15;101120.88;;;5.26;86.91
37778;BME280;23615;51.506;7.678;2023-05-18T03:12:40;101126.66;;;5.30;87.12
37778;BME280;23615;51.506;7.678;2023-05-18T03:15:06;101124.66;;;5.15;87.24
37778;BME280;23615;51.506;7.678;2023-05-18T03:17:31;101120.50;;;5.05;87.49
37778;BME280;23615;51.506;7.678;2023-05-18T03:19:57;101124.47;;;5.01;88.09
37778;BME280;23615;51.506;7.678;2023-05-18T03:22:23;101122.44;;;4.95;88.39
37778;BME280;23615;51.506;7.678;2023-05-18T03:24:48;101123.41;;;4.94;88.49
37778;BME280;23615;51.506;7.678;2023-05-18T03:27:15;101113.19;;;4.91;88.51
37778;BME280;23615;51.506;7.678;2023-05-18T03:29:40;101121.28;;;4.89;88.56
37778;BME280;23615;51.506;7.678;2023-05-18T03:32:06;101131.00;;;4.88;88.65
37778;BME280;23615;51.506;7.678;2023-05-18T03:34:31;101128.69;;;4.85;88.85
37778;BME280;23615;51.506;7.678;2023-05-18T03:36:56;101128.84;;;4.84;88.44
37778;BME280;23615;51.506;7.678;2023-05-18T03:39:22;101126.19;;;4.84;88.77
37778;BME280;23615;51.506;7.678;2023-05-18T03:41:47;101127.16;;;4.83;88.86
37778;BME280;23615;51.506;7.678;2023-05-18T03:44:12;101134.13;;;4.84;89.18
37778;BME280;23615;51.506;7.678;2023-05-18T03:46:37;101130.50;;;4.85;89.04
37778;BME280;23615;51.506;7.678;2023-05-18T03:49:03;101125.34;;;4.83;89.25
37778;BME280;23615;51.506;7.678;2023-05-18T03:51:29;101122.56;;;4.85;89.33
37778;BME280;23615;51.506;7.678;2023-05-18T03:53:55;101128.38;;;4.88;89.18
37778;BME280;23615;51.506;7.678;2023-05-18T03:56:20;101132.16;;;4.86;88.95
37778;BME280;23615;51.506;7.678;2023-05-18T03:58:47;101126.03;;;4.85;89.73
37778;BME280;23615;51.506;7.678;2023-05-18T04:01:12;101134.78;;;4.86;89.36
37778;BME280;23615;51.506;7.678;2023-05-18T04:03:38;101132.69;;;4.89;89.21
37778;BME280;23615;51.506;7.678;2023-05-18T04:06:05;101130.34;;;4.86;89.48
37778;BME280;23615;51.506;7.678;2023-05-18T04:08:30;101137.44;;;4.86;90.37
37778;BME280;23615;51.506;7.678;2023-05-18T04:10:58;101135.47;;;4.88;89.49
37778;BME280;23615;51.506;7.678;2023-05-18T04:13:24;101134.34;;;4.91;90.00
37778;BME280;23615;51.506;7.678;2023-05-18T04:15:49;101129.88;;;4.91;90.10
37778;BME280;23615;51.506;7.678;2023-05-18T04:18:15;101140.28;;;4.93;89.91
37778;BME280;23615;51.506;7.678;2023-05-18T04:20:41;101135.66;;;4.95;90.28
37778;BME280;23615;51.506;7.678;2023-05-18T04:23:10;101145.94;;;4.98;90.29
37778;BME280;23615;51.506;7.678;2023-05-18T04:25:35;101138.66;;;5.00;90.27
37778;BME280;23615;51.506;7.678;2023-05-18T04:28:00;101138.31;;;5.03;90.28
37778;BME280;23615;51.506;7.678;2023-05-18T04:30:27;101146.47;;;5.09;90.45
37778;BME280;23615;51.506;7.678;2023-05-18T04:32:53;101144.31;;;5.13;90.42
37778;BME280;23615;51.506;7.678;2023-05-18T04:35:22;101150.94;;;5.17;90.41
37778;BME280;23615;51.506;7.678;2023-05-18T04:37:48;101141.69;;;5.21;90.64
37778;BME280;23615;51.506;7.678;2023-05-18T04:40:14;101140.56;;;5.23;90.84
37778;BME280;23615;51.506;7.678;2023-05-18T04:42:41;101143.88;;;5.25;90.66
37778;BME280;23615;51.506;7.678;2023-05-18T04:45:18;101148.81;;;5.28;91.04
37778;BME280;23615;51.506;7.678;2023-05-18T04:47:47;101138.59;;;5.34;90.81
37778;BME280;23615;51.506;7.678;2023-05-18T04:50:18;101144.88;;;5.41;91.04
37778;BME280;23615;51.506;7.678;2023-05-18T04:52:45;101143.75;;;5.43;91.29
37778;BME280;23615;51.506;7.678;2023-05-18T04:55:17;101135.81;;;5.43;91.68
37778;BME280;23615;51.506;7.678;2023-05-18T04:57:50;101139.44;;;5.50;91.26
37778;BME280;23615;51.506;7.678;2023-05-18T05:00:18;101140.44;;;5.57;91.49
37778;BME280;23615;51.506;7.678;2023-05-18T05:02:45;101142.94;;;5.67;91.73
37778;BME280;23615;51.506;7.678;2023-05-18T05:05:11;101139.63;;;5.65;91.56
37778;BME280;23615;51.506;7.678;2023-05-18T05:07:36;101140.81;;;5.71;91.51
37778;BME280;23615;51.506;7.678;2023-05-18T05:10:02;101151.41;;;5.79;91.78
37778;BME280;23615;51.506;7.678;2023-05-18T05:12:27;101141.78;;;5.86;91.32
37778;BME280;23615;51.506;7.678;2023-05-18T05:14:52;101149.28;;;5.90;91.43
37778;BME280;23615;51.506;7.678;2023-05-18T05:17:18;101143.81;;;5.92;91.43
37778;BME280;23615;51.506;7.678;2023-05-18T05:19:43;101143.63;;;6.01;91.52
37778;BME280;23615;51.506;7.678;2023-05-18T05:22:08;101144.16;;;6.05;91.54
37778;BME280;23615;51.506;7.678;2023-05-18T05:24:33;101148.97;;;6.10;91.55
37778;BME280;23615;51.506;7.678;2023-05-18T05:26:59;101153.75;;;6.14;91.18
37778;BME280;23615;51.506;7.678;2023-05-18T05:29:24;101157.56;;;6.28;91.32
37778;BME280;23615;51.506;7.678;2023-05-18T05:31:50;101158.34;;;6.28;90.78
37778;BME280;23615;51.506;7.678;2023-05-18T05:34:16;101159.19;;;6.29;91.26
37778;BME280;23615;51.506;7.678;2023-05-18T05:36:41;101158.69;;;6.33;91.42
37778;BME280;23615;51.506;7.678;2023-05-18T05:39:06;101160.34;;;6.34;91.62
37778;BME280;23615;51.506;7.678;2023-05-18T05:41:32;101162.00;;;6.35;91.93
37778;BME280;23615;51.506;7.678;2023-05-18T05:43:57;101163.16;;;6.33;91.92
37778;BME280;23615;51.506;7.678;2023-05-18T05:46:23;101164.13;;;6.40;92.10
37778;BME280;23615;51.506;7.678;2023-05-18T05:48:48;101166.78;;;6.40;91.75
37778;BME280;23615;51.506;7.678;2023-05-18T05:51:14;101167.47;;;6.42;92.01
37778;BME280;23615;51.506;7.678;2023-05-18T05:53:39;101159.47;;;6.50;91.91
37778;BME280;23615;51.506;7.678;2023-05-18T05:56:05;101162.97;;;6.51;91.75
37778;BME280;23615;51.506;7.678;2023-05-18T05:58:32;101161.44;;;6.56;91.12
37778;BME280;23615;51.506;7.678;2023-05-18T06:00:57;101161.94;;;6.60;91.43
37778;BME280;23615;51.506;7.678;2023-05-18T06:03:22;101158.78;;;6.72;90.69
37778;BME280;23615;51.506;7.678;2023-05-18T06:05:48;101166.22;;;6.69;91.03
37778;BME280;23615;51.506;7.678;2023-05-18T06:08:13;101163.09;;;6.73;91.14
37778;BME280;23615;51.506;7.678;2023-05-18T06:10:39;101160.56;;;6.80;90.90
37778;BME280;23615;51.506;7.678;2023-05-18T06:13:05;101163.06;;;6.82;90.71
37778;BME280;23615;51.506;7.678;2023-05-18T06:15:31;101169.00;;;6.84;91.07
37778;BME280;23615;51.506;7.678;2023-05-18T06:17:56;101170.31;;;6.88;90.32
37778;BME280;23615;51.506;7.678;2023-05-18T06:20:21;101173.94;;;6.95;90.11
37778;BME280;23615;51.506;7.678;2023-05-18T06:22:46;101179.03;;;7.04;89.77
37778;BME280;23615;51.506;7.678;2023-05-18T06:25:12;101170.41;;;7.02;88.82
37778;BME280;23615;51.506;7.678;2023-05-18T06:27:37;101174.41;;;7.06;88.68
37778;BME280;23615;51.506;7.678;2023-05-18T06:30:03;101181.81;;;7.11;89.22
37778;BME280;23615;51.506;7.678;2023-05-18T06:32:29;101178.13;;;7.20;88.39
37778;BME280;23615;51.506;7.678;2023-05-18T06:34:55;101183.81;;;7.17;88.39
37778;BME280;23615;51.506;7.678;2023-05-18T06:37:20;101182.09;;;7.24;88.78
37778;BME280;23615;51.506;7.678;2023-05-18T06:39:45;101188.53;;;7.30;88.91
37778;BME280;23615;51.506;7.678;2023-05-18T06:42:11;101188.03;;;7.34;88.45
37778;BME280;23615;51.506;7.678;2023-05-18T06:44:36;101194.19;;;7.35;88.65
37778;BME280;23615;51.506;7.678;2023-05-18T06:47:01;101203.38;;;7.47;88.54
37778;BME280;23615;51.506;7.678;2023-05-18T06:49:27;101206.25;;;7.45;87.86
37778;BME280;23615;51.506;7.678;2023-05-18T06:51:52;101195.41;;;7.55;87.63
37778;BME280;23615;51.506;7.678;2023-05-18T06:54:17;101198.69;;;7.57;87.36
37778;BME280;23615;51.506;7.678;2023-05-18T06:56:42;101192.38;;;7.58;87.15
37778;BME280;23615;51.506;7.678;2023-05-18T06:59:08;101193.88;;;7.61;87.38
37778;BME280;23615;51.506;7.678;2023-05-18T07:01:33;101190.22;;;7.62;87.63
37778;BME280;23615;51.506;7.678;2023-05-18T07:03:58;101192.91;;;7.76;87.14
37778;BME280;23615;51.506;7.678;2023-05-18T07:06:24;101196.19;;;7.86;86.98
37778;BME280;23615;51.506;7.678;2023-05-18T07:08:49;101196.94;;;7.95;86.49
37778;BME280;23615;51.506;7.678;2023-05-18T07:11:15;101197.78;;;7.96;85.73
37778;BME280;23615;51.506;7.678;2023-05-18T07:13:40;101205.41;;;7.99;86.13
37778;BME280;23615;51.506;7.678;2023-05-18T07:16:05;101205.91;;;7.94;85.93
37778;BME280;23615;51.506;7.678;2023-05-18T07:18:30;101202.50;;;8.08;86.25
37778;BME280;23615;51.506;7.678;2023-05-18T07:20:56;101207.19;;;8.21;86.94
37778;BME280;23615;51.506;7.678;2023-05-18T07:23:21;101201.53;;;8.24;85.96
37778;BME280;23615;51.506;7.678;2023-05-18T07:25:47;101203.47;;;8.30;86.03
37778;BME280;23615;51.506;7.678;2023-05-18T07:28:13;101201.41;;;8.40;86.44
37778;BME280;23615;51.506;7.678;2023-05-18T07:30:38;101193.53;;;8.47;86.18
37778;BME280;23615;51.506;7.678;2023-05-18T07:33:04;101193.00;;;8.51;85.92
37778;BME280;23615;51.506;7.678;2023-05-18T07:35:29;101194.22;;;8.63;84.93
37778;BME280;23615;51.506;7.678;2023-05-18T07:37:54;101200.53;;;8.62;85.45
37778;BME280;23615;51.506;7.678;2023-05-18T07:40:20;101201.28;;;8.71;84.69
37778;BME280;23615;51.506;7.678;2023-05-18T07:42:45;101199.53;;;8.78;84.49
37778;BME280;23615;51.506;7.678;2023-05-18T07:45:11;101192.03;;;8.82;84.46
37778;BME280;23615;51.506;7.678;2023-05-18T07:47:36;101190.00;;;8.84;83.45
37778;BME280;23615;51.506;7.678;2023-05-18T07:50:02;101195.44;;;8.90;84.06
37778;BME280;23615;51.506;7.678;2023-05-18T07:52:27;101197.81;;;9.00;83.79
37778;BME280;23615;51.506;7.678;2023-05-18T07:54:56;101195.31;;;8.98;82.25
37778;BME280;23615;51.506;7.678;2023-05-18T07:57:22;101190.56;;;9.09;82.65
37778;BME280;23615;51.506;7.678;2023-05-18T07:59:47;101189.34;;;9.26;81.33
37778;BME280;23615;51.506;7.678;2023-05-18T08:02:12;101187.56;;;9.33;82.63
37778;BME280;23615;51.506;7.678;2023-05-18T08:04:37;101183.78;;;9.42;82.32
37778;BME280;23615;51.506;7.678;2023-05-18T08:07:03;101186.44;;;9.42;81.26
37778;BME280;23615;51.506;7.678;2023-05-18T08:09:29;101193.97;;;9.38;82.84
37778;BME280;23615;51.506;7.678;2023-05-18T08:11:55;101192.25;;;9.46;81.28
37778;BME280;23615;51.506;7.678;2023-05-18T08:14:20;101190.09;;;9.56;81.78
37778;BME280;23615;51.506;7.678;2023-05-18T08:16:46;101192.13;;;9.75;80.80
37778;BME280;23615;51.506;7.678;2023-05-18T08:19:11;101197.38;;;9.83;79.97
37778;BME280;23615;51.506;7.678;2023-05-18T08:21:36;101192.22;;;9.82;78.59
37778;BME280;23615;51.506;7.678;2023-05-18T08:24:03;101183.00;;;9.84;78.98
37778;BME280;23615;51.506;7.678;2023-05-18T08:26:29;101187.97;;;9.87;78.57
37778;BME280;23615;51.506;7.678;2023-05-18T08:28:54;101185.66;;;10.05;78.25
37778;BME280;23615;51.506;7.678;2023-05-18T08:31:20;101181.34;;;10.04;78.95
37778;BME280;23615;51.506;7.678;2023-05-18T08:33:46;101175.03;;;10.27;78.86
37778;BME280;23615;51.506;7.678;2023-05-18T08:36:12;101172.22;;;10.35;77.89
37778;BME280;23615;51.506;7.678;2023-05-18T08:38:37;101169.78;;;10.40;76.75
37778;BME280;23615;51.506;7.678;2023-05-18T08:41:19;101165.22;;;10.34;75.88
37778;BME280;23615;51.506;7.678;2023-05-18T08:43:52;101175.09;;;10.40;75.33
37778;BME280;23615;51.506;7.678;2023-05-18T08:46:28;101166.19;;;10.54;75.13
37778;BME280;23615;51.506;7.678;2023-05-18T08:48:58;101167.50;;;10.65;74.98
37778;BME280;23615;51.506;7.678;2023-05-18T08:51:27;101165.34;;;10.81;75.00
37778;BME280;23615;51.506;7.678;2023-05-18T08:53:53;101158.72;;;10.77;75.59
37778;BME280;23615;51.506;7.678;2023-05-18T08:56:21;101160.22;;;10.86;74.95
37778;BME280;23615;51.506;7.678;2023-05-18T08:58:48;101163.13;;;10.92;73.93
37778;BME280;23615;51.506;7.678;2023-05-18T09:01:14;101158.44;;;11.00;74.13
37778;BME280;23615;51.506;7.678;2023-05-18T09:03:40;101158.09;;;11.16;75.75
37778;BME280;23615;51.506;7.678;2023-05-18T09:06:06;101156.72;;;11.27;74.94
37778;BME280;23615;51.506;7.678;2023-05-18T09:08:32;101153.88;;;11.42;73.40
37778;BME280;23615;51.506;7.678;2023-05-18T09:11:02;101152.47;;;11.52;72.35
37778;BME280;23615;51.506;7.678;2023-05-18T09:13:28;101152.66;;;11.51;72.36
37778;BME280;23615;51.506;7.678;2023-05-18T09:15:54;101142.41;;;11.54;72.81
37778;BME280;23615;51.506;7.678;2023-05-18T09:18:19;101147.75;;;11.61;71.41
37778;BME280;23615;51.506;7.678;2023-05-18T09:20:45;101146.94;;;11.67;71.97
37778;BME280;23615;51.506;7.678;2023-05-18T09:23:11;101141.59;;;11.67;71.93
37778;BME280;23615;51.506;7.678;2023-05-18T09:25:42;101147.81;;;11.81;72.18
37778;BME280;23615;51.506;7.678;2023-05-18T09:28:10;101145.34;;;11.86;75.12
37778;BME280;23615;51.506;7.678;2023-05-18T09:30:40;101135.72;;;11.91;75.04
37778;BME280;23615;51.506;7.678;2023-05-18T09:33:17;101137.13;;;12.07;72.92
37778;BME280;23615;51.506;7.678;2023-05-18T09:35:44;101149.69;;;12.07;73.71
37778;BME280;23615;51.506;7.678;2023-05-18T09:38:11;101146.63;;;12.10;72.35
37778;BME280;23615;51.506;7.678;2023-05-18T09:40:42;101144.75;;;12.23;71.08
37778;BME280;23615;51.506;7.678;2023-05-18T09:43:08;101146.22;;;12.19;70.36
37778;BME280;23615;51.506;7.678;2023-05-18T09:45:40;101143.72;;;12.31;70.38
37778;BME280;23615;51.506;7.678;2023-05-18T09:48:06;101155.03;;;12.53;70.76
37778;BME280;23615;51.506;7.678;2023-05-18T09:50:31;101152.94;;;12.74;70.60
37778;BME280;23615;51.506;7.678;2023-05-18T09:52:58;101148.19;;;12.70;71.56
37778;BME280;23615;51.506;7.678;2023-05-18T09:55:24;101141.13;;;12.89;70.30
37778;BME280;23615;51.506;7.678;2023-05-18T09:57:49;101141.75;;;12.91;68.47
37778;BME280;23615;51.506;7.678;2023-05-18T10:00:16;101140.63;;;13.11;69.03
37778;BME280;23615;51.506;7.678;2023-05-18T10:02:45;101141.38;;;13.32;68.49
37778;BME280;23615;51.506;7.678;2023-05-18T10:05:20;101145.09;;;13.37;67.48
37778;BME280;23615;51.506;7.678;2023-05-18T10:07:46;101141.31;;;13.45;68.19
37778;BME280;23615;51.506;7.678;2023-05-18T10:10:11;101141.69;;;13.48;67.96
37778;BME280;23615;51.506;7.678;2023-05-18T10:12:40;101135.88;;;13.58;68.10
37778;BME280;23615;51.506;7.678;2023-05-18T10:15:08;101133.72;;;13.73;67.04
37778;BME280;23615;51.506;7.678;2023-05-18T10:17:35;101138.38;;;13.84;67.21
37778;BME280;23615;51.506;7.678;2023-05-18T10:20:03;101129.75;;;13.82;67.09
37778;BME280;23615;51.506;7.678;2023-05-18T10:22:33;101131.59;;;13.82;66.38
37778;BME280;23615;51.506;7.678;2023-05-18T10:25:00;101119.44;;;14.04;67.18
37778;BME280;23615;51.506;7.678;2023-05-18T10:27:28;101113.22;;;14.10;66.63
37778;BME280;23615;51.506;7.678;2023-05-18T10:30:00;101119.97;;;14.13;67.32
37778;BME280;23615;51.506;7.678;2023-05-18T10:32:30;101118.59;;;14.10;64.73
37778;BME280;23615;51.506;7.678;2023-05-18T10:34:57;101116.97;;;14.28;65.38
37778;BME280;23615;51.506;7.678;2023-05-18T10:37:24;101120.16;;;14.18;65.18
37778;BME280;23615;51.506;7.678;2023-05-18T10:39:55;101117.13;;;14.33;65.68
37778;BME280;23615;51.506;7.678;2023-05-18T10:42:21;101118.34;;;14.37;65.96
37778;BME280;23615;51.506;7.678;2023-05-18T10:44:46;101110.94;;;14.32;64.79
37778;BME280;23615;51.506;7.678;2023-05-18T10:47:14;101114.88;;;14.54;64.71
37778;BME280;23615;51.506;7.678;2023-05-18T10:49:41;101107.78;;;14.60;65.66
37778;BME280;23615;51.506;7.678;2023-05-18T10:52:07;101105.63;;;14.69;63.69
37778;BME280;23615;51.506;7.678;2023-05-18T10:54:34;101108.91;;;14.89;65.84
37778;BME280;23615;51.506;7.678;2023-05-18T10:57:00;101105.25;;;15.02;64.65
37778;BME280;23615;51.506;7.678;2023-05-18T10:59:26;101109.19;;;15.17;64.28
37778;BME280;23615;51.506;7.678;2023-05-18T11:01:52;101102.81;;;15.12;63.69
37778;BME280;23615;51.506;7.678;2023-05-18T11:04:26;101107.44;;;15.23;63.75
37778;BME280;23615;51.506;7.678;2023-05-18T11:06:58;101098.66;;;15.16;62.17
37778;BME280;23615;51.506;7.678;2023-05-18T11:09:24;101101.66;;;15.08;63.69
37778;BME280;23615;51.506;7.678;2023-05-18T11:11:56;101101.56;;;15.14;64.21
37778;BME280;23615;51.506;7.678;2023-05-18T11:14:29;101096.84;;;15.28;63.84
37778;BME280;23615;51.506;7.678;2023-05-18T11:17:19;101099.59;;;15.51;64.24
37778;BME280;23615;51.506;7.678;2023-05-18T11:20:11;101096.25;;;15.67;64.74
37778;BME280;23615;51.506;7.678;2023-05-18T11:28:03;101080.06;;;15.97;61.75
37778;BME280;23615;51.506;7.678;2023-05-18T11:33:20;101078.63;;;15.95;62.40
37778;BME280;23615;51.506;7.678;2023-05-18T11:36:06;101072.81;;;16.09;63.61
37778;BME280;23615;51.506;7.678;2023-05-18T11:38:52;101079.94;;;16.16;62.45
37778;BME280;23615;51.506;7.678;2023-05-18T11:41:31;101078.06;;;16.04;60.82
37778;BME280;23615;51.506;7.678;2023-05-18T11:44:19;101077.63;;;16.19;61.87
37778;BME280;23615;51.506;7.678;2023-05-18T11:46:54;101074.78;;;16.02;61.11
37778;BME280;23615;51.506;7.678;2023-05-18T11:49:25;101074.56;;;16.16;61.52
37778;BME280;23615;51.506;7.678;2023-05-18T11:52:19;101065.19;;;16.18;61.93
37778;BME280;23615;51.506;7.678;2023-05-18T11:54:52;101066.59;;;15.97;62.02
37778;BME280;23615;51.506;7.678;2023-05-18T11:57:22;101072.44;;;16.06;61.49
37778;BME280;23615;51.506;7.678;2023-05-18T11:59:53;101073.47;;;15.93;64.94
37778;BME280;23615;51.506;7.678;2023-05-18T12:02:22;101062.88;;;16.10;61.84
37778;BME280;23615;51.506;7.678;2023-05-18T12:04:51;101061.69;;;16.18;62.42
37778;BME280;23615;51.506;7.678;2023-05-18T12:07:18;101061.78;;;16.23;62.18
37778;BME280;23615;51.506;7.678;2023-05-18T12:09:44;101049.03;;;16.18;61.96
37778;BME280;23615;51.506;7.678;2023-05-18T12:12:11;101062.25;;;16.31;61.41
37778;BME280;23615;51.506;7.678;2023-05-18T12:14:40;101057.59;;;16.38;61.93
37778;BME280;23615;51.506;7.678;2023-05-18T12:17:06;101059.66;;;16.48;61.49
37778;BME280;23615;51.506;7.678;2023-05-18T12:19:47;101052.06;;;16.45;60.78
37778;BME280;23615;51.506;7.678;2023-05-18T12:22:13;101046.66;;;16.45;61.09
37778;BME280;23615;51.506;7.678;2023-05-18T12:24:39;101056.03;;;16.66;60.96
37778;BME280;23615;51.506;7.678;2023-05-18T12:27:06;101049.78;;;16.77;59.78
37778;BME280;23615;51.506;7.678;2023-05-18T12:29:33;101053.69;;;16.46;60.09
37778;BME280;23615;51.506;7.678;2023-05-18T12:32:04;101046.88;;;16.55;60.74
37778;BME280;23615;51.506;7.678;2023-05-18T12:34:29;101047.81;;;16.72;60.23
37778;BME280;23615;51.506;7.678;2023-05-18T12:36:56;101044.16;;;16.78;61.56
37778;BME280;23615;51.506;7.678;2023-05-18T12:39:23;101048.31;;;16.98;61.01
37778;BME280;23615;51.506;7.678;2023-05-18T12:41:49;101040.53;;;16.73;59.50
37778;BME280;23615;51.506;7.678;2023-05-18T12:44:14;101037.75;;;16.56;63.90
37778;BME280;23615;51.506;7.678;2023-05-18T12:46:40;101035.75;;;16.52;62.16
37778;BME280;23615;51.506;7.678;2023-05-18T12:49:07;101031.63;;;16.72;60.38
37778;BME280;23615;51.506;7.678;2023-05-18T12:51:34;101033.97;;;16.80;59.92
37778;BME280;23615;51.506;7.678;2023-05-18T12:54:01;101027.31;;;16.71;58.80
37778;BME280;23615;51.506;7.678;2023-05-18T12:56:26;101024.97;;;16.52;61.44
37778;BME280;23615;51.506;7.678;2023-05-18T12:58:59;101021.91;;;16.60;59.43
37778;BME280;23615;51.506;7.678;2023-05-18T13:01:27;101028.72;;;16.74;59.69
37778;BME280;23615;51.506;7.678;2023-05-18T13:03:57;101029.09;;;16.94;59.12
37778;BME280;23615;51.506;7.678;2023-05-18T13:06:23;101025.22;;;17.02;58.41
37778;BME280;23615;51.506;7.678;2023-05-18T13:08:52;101024.06;;;16.86;59.14
37778;BME280;23615;51.506;7.678;2023-05-18T13:11:17;101020.81;;;16.84;59.54
37778;BME280;23615;51.506;7.678;2023-05-18T13:14:03;101018.41;;;16.71;60.92
37778;BME280;23615;51.506;7.678;2023-05-18T13:16:29;101018.91;;;16.84;59.66